Time,TemperatureF,DewpointF,PressureIn,WindDirection,WindDirectionDegrees,WindSpeedMPH,WindSpeedGustMPH,Humidity,HourlyPrecipIn,Conditions,Clouds,dailyrainin,SolarRadiationWatts/m^2,SoftwareType,DateUTC
2013-12-01 00:22:00,40.0,27.0,-100.00,East,86,1.0,7.0,60,0.00,,,-99.99,0.000000,,2013-12-01 08:22:00,
2013-12-01 00:32:00,40.0,27.0,-100.00,East,86,1.0,7.0,60,0.00,,,-99.99,0.000000,,2013-12-01 08:32:00,
2013-12-01 00:42:00,40.0,27.0,-100.00,East,86,1.0,7.0,60,0.00,,,-99.99,0.000000,,2013-12-01 08:42:00,
2013-12-01 00:52:00,40.0,27.0,-100.00,East,86,1.0,7.0,60,0.00,,,-99.99,0.000000,,2013-12-01 08:52:00,
2013-12-01 01:21:00,40.0,26.0,-100.00,East,91,0.0,5.0,58,0.00,,,0.00,0.000000,,2013-12-01 09:21:00,
2013-12-01 01:33:00,40.0,26.0,-100.00,East,91,0.0,5.0,58,0.00,,,0.00,0.000000,,2013-12-01 09:33:00,
2013-12-01 01:43:00,40.0,26.0,-100.00,East,91,0.0,5.0,58,0.00,,,0.00,0.000000,,2013-12-01 09:43:00,
2013-12-01 01:53:00,40.0,26.0,-100.00,East,91,0.0,5.0,58,0.00,,,0.00,0.000000,,2013-12-01 09:53:00,
2013-12-01 02:22:00,40.0,28.0,-100.00,East,101,0.0,7.0,61,0.00,,,0.00,0.000000,,2013-12-01 10:22:00,
2013-12-01 02:33:00,40.0,28.0,-100.00,East,101,0.0,7.0,61,0.00,,,0.00,0.000000,,2013-12-01 10:33:00,
2013-12-01 02:42:00,40.0,28.0,-100.00,East,101,0.0,7.0,61,0.00,,,0.00,0.000000,,2013-12-01 10:42:00,
2013-12-01 02:53:00,40.0,28.0,-100.00,East,101,0.0,7.0,61,0.00,,,0.00,0.000000,,2013-12-01 10:53:00,
2013-12-01 03:22:00,38.0,26.0,-100.00,East,80,0.0,6.0,61,0.00,,,0.00,0.000000,,2013-12-01 11:22:00,
2013-12-01 03:33:00,38.0,26.0,-100.00,East,80,0.0,6.0,61,0.00,,,0.00,0.000000,,2013-12-01 11:33:00,
2013-12-01 03:42:00,38.0,26.0,-100.00,East,80,0.0,6.0,61,0.00,,,0.00,0.000000,,2013-12-01 11:42:00,
2013-12-01 03:52:00,38.0,26.0,-100.00,East,80,0.0,6.0,61,0.00,,,0.00,0.000000,,2013-12-01 11:52:00,
2013-12-01 04:22:00,40.0,26.0,-100.00,East,100,1.0,4.0,57,0.00,,,0.00,0.000000,,2013-12-01 12:22:00,
2013-12-01 04:32:00,40.0,26.0,-100.00,East,100,1.0,4.0,57,0.00,,,0.00,0.000000,,2013-12-01 12:32:00,
2013-12-01 04:42:00,40.0,26.0,-100.00,East,100,1.0,4.0,57,0.00,,,0.00,0.000000,,2013-12-01 12:42:00,
2013-12-01 04:52:00,40.0,26.0,-100.00,East,100,1.0,4.0,57,0.00,,,0.00,0.000000,,2013-12-01 12:52:00,
2013-12-01 05:21:00,40.0,26.0,-100.00,East,89,0.0,6.0,57,0.00,,,0.00,0.000000,,2013-12-01 13:21:00,
2013-12-01 05:32:00,40.0,26.0,-100.00,East,89,0.0,6.0,57,0.00,,,0.00,0.000000,,2013-12-01 13:32:00,
2013-12-01 05:42:00,40.0,26.0,-100.00,East,89,0.0,6.0,57,0.00,,,0.00,0.000000,,2013-12-01 13:42:00,
2013-12-01 05:52:00,40.0,26.0,-100.00,East,89,0.0,6.0,57,0.00,,,0.00,0.000000,,2013-12-01 13:52:00,
2013-12-01 06:21:00,39.0,24.0,-100.00,East,93,1.0,5.0,55,0.00,,,0.00,0.000000,,2013-12-01 14:21:00,
2013-12-01 06:32:00,39.0,24.0,-100.00,East,93,1.0,5.0,55,0.00,,,0.00,0.000000,,2013-12-01 14:32:00,
2013-12-01 06:42:00,39.0,24.0,-100.00,East,93,1.0,5.0,55,0.00,,,0.00,0.000000,,2013-12-01 14:42:00,
2013-12-01 06:52:00,39.0,24.0,-100.00,East,93,1.0,5.0,55,0.00,,,0.00,0.000000,,2013-12-01 14:52:00,
2013-12-01 07:21:00,39.0,25.0,-100.00,East,100,1.0,5.0,58,0.00,,,0.00,0.000000,,2013-12-01 15:21:00,
2013-12-01 07:33:00,39.0,25.0,-100.00,East,100,1.0,5.0,58,0.00,,,0.00,0.000000,,2013-12-01 15:33:00,
2013-12-01 07:43:00,39.0,25.0,-100.00,East,100,1.0,5.0,58,0.00,,,0.00,0.000000,,2013-12-01 15:43:00,
2013-12-01 07:53:00,39.0,25.0,-100.00,East,100,1.0,5.0,58,0.00,,,0.00,0.000000,,2013-12-01 15:53:00,
2013-12-01 08:43:00,45.0,28.0,-100.00,East,93,0.0,6.0,51,0.00,,,0.00,56.000000,,2013-12-01 16:43:00,
2013-12-01 08:52:00,45.0,28.0,-100.00,East,93,0.0,6.0,51,0.00,,,0.00,56.000000,,2013-12-01 16:52:00,
2013-12-01 13:53:00,66.0,37.0,-100.00,SW,217,3.0,7.0,34,-99.99,,,0.00,680.000000,,2013-12-01 21:53:00,
2013-12-01 17:21:00,51.0,39.0,-100.00,ENE,61,0.0,4.0,64,-99.99,,,0.00,43.000000,,2013-12-02 01:21:00,
2013-12-01 17:32:00,51.0,39.0,-100.00,ENE,61,0.0,4.0,64,-99.99,,,0.00,43.000000,,2013-12-02 01:32:00,
2013-12-01 17:42:00,51.0,39.0,-100.00,ENE,61,0.0,4.0,64,-99.99,,,0.00,43.000000,,2013-12-02 01:42:00,
2013-12-01 17:52:00,51.0,39.0,-100.00,ENE,61,0.0,4.0,64,-99.99,,,0.00,43.000000,,2013-12-02 01:52:00,
2013-12-01 18:21:00,46.0,37.0,-100.00,ENE,62,0.0,3.0,71,0.00,,,0.00,0.000000,,2013-12-02 02:21:00,
2013-12-01 18:32:00,46.0,37.0,-100.00,ENE,62,0.0,3.0,71,0.00,,,0.00,0.000000,,2013-12-02 02:32:00,
2013-12-01 18:42:00,46.0,37.0,-100.00,ENE,62,0.0,3.0,71,0.00,,,0.00,0.000000,,2013-12-02 02:42:00,
2013-12-01 18:52:00,46.0,37.0,-100.00,ENE,62,0.0,3.0,71,0.00,,,0.00,0.000000,,2013-12-02 02:52:00,
2013-12-01 19:22:00,46.0,34.0,-100.00,ESE,103,1.0,4.0,63,0.00,,,0.00,0.000000,,2013-12-02 03:22:00,
2013-12-01 19:33:00,46.0,34.0,-100.00,ESE,103,1.0,4.0,63,0.00,,,0.00,0.000000,,2013-12-02 03:33:00,
2013-12-01 19:43:00,46.0,34.0,-100.00,ESE,103,1.0,4.0,63,0.00,,,0.00,0.000000,,2013-12-02 03:43:00,
2013-12-01 19:53:00,46.0,34.0,-100.00,ESE,103,1.0,4.0,63,0.00,,,0.00,0.000000,,2013-12-02 03:53:00,
2013-12-01 20:23:00,45.0,32.0,-100.00,East,90,0.0,5.0,61,0.00,,,0.00,0.000000,,2013-12-02 04:23:00,
2013-12-01 20:32:00,45.0,32.0,-100.00,East,90,0.0,5.0,61,0.00,,,0.00,0.000000,,2013-12-02 04:32:00,
2013-12-01 20:43:00,45.0,32.0,-100.00,East,90,0.0,5.0,61,0.00,,,0.00,0.000000,,2013-12-02 04:43:00,
2013-12-01 20:52:00,45.0,32.0,-100.00,East,90,0.0,5.0,61,0.00,,,0.00,0.000000,,2013-12-02 04:52:00,
2013-12-01 21:23:00,44.0,31.0,-100.00,East,96,0.0,4.0,59,0.00,,,0.00,0.000000,,2013-12-02 05:23:00,
2013-12-01 21:32:00,44.0,31.0,-100.00,East,96,0.0,4.0,59,0.00,,,0.00,0.000000,,2013-12-02 05:32:00,
2013-12-01 21:43:00,44.0,31.0,-100.00,East,96,0.0,4.0,59,0.00,,,0.00,0.000000,,2013-12-02 05:43:00,
2013-12-01 21:53:00,44.0,31.0,-100.00,East,96,0.0,4.0,59,0.00,,,0.00,0.000000,,2013-12-02 05:53:00,
2013-12-01 22:22:00,43.0,28.0,-100.00,East,91,0.0,5.0,54,0.00,,,0.00,0.000000,,2013-12-02 06:22:00,
2013-12-01 22:32:00,43.0,28.0,-100.00,East,91,0.0,5.0,54,0.00,,,0.00,0.000000,,2013-12-02 06:32:00,
2013-12-01 22:42:00,43.0,28.0,-100.00,East,91,0.0,5.0,54,0.00,,,0.00,0.000000,,2013-12-02 06:42:00,
2013-12-01 22:52:00,43.0,28.0,-100.00,East,91,0.0,5.0,54,0.00,,,0.00,0.000000,,2013-12-02 06:52:00,
2013-12-01 23:21:00,44.0,29.0,-100.00,East,96,0.0,5.0,55,0.00,,,0.00,0.000000,,2013-12-02 07:21:00,
2013-12-01 23:31:00,44.0,29.0,-100.00,East,96,0.0,5.0,55,0.00,,,0.00,0.000000,,2013-12-02 07:31:00,
2013-12-01 23:42:00,44.0,29.0,-100.00,East,96,0.0,5.0,55,0.00,,,0.00,0.000000,,2013-12-02 07:42:00,
2013-12-01 23:52:00,44.0,29.0,-100.00,East,96,0.0,5.0,55,0.00,,,0.00,0.000000,,2013-12-02 07:52:00,